sensor_id;sensor_type;location;lat;lon;timestamp;pressure;altitude;pressure_sealevel;temperature;humidity
49072;BME280;52656;52.610;10.236;2023-05-09T00:01:13;101604.88;;;10.57;45.43
49072;BME280;52656;52.610;10.236;2023-05-09T00:03:38;101602.03;;;10.64;45.55
49072;BME280;52656;52.610;10.236;2023-05-09T00:06:04;101600.41;;;10.59;45.30
49072;BME280;52656;52.610;10.236;2023-05-09T00:08:31;101596.88;;;10.24;46.93
49072;BME280;52656;52.610;10.236;2023-05-09T00:10:56;101599.91;;;10.44;46.10
49072;BME280;52656;52.610;10.236;2023-05-09T00:13:21;101600.28;;;10.29;46.70
49072;BME280;52656;52.610;10.236;2023-05-09T00:15:47;101601.75;;;10.41;45.92
49072;BME280;52656;52.610;10.236;2023-05-09T00:18:13;101596.53;;;10.38;46.32
49072;BME280;52656;52.610;10.236;2023-05-09T00:20:38;101598.53;;;10.28;46.55
49072;BME280;52656;52.610;10.236;2023-05-09T00:23:05;101595.91;;;10.28;46.38
49072;BME280;52656;52.610;10.236;2023-05-09T00:25:31;101585.56;;;10.17;47.11
49072;BME280;52656;52.610;10.236;2023-05-09T00:27:56;101587.44;;;10.14;46.94
49072;BME280;52656;52.610;10.236;2023-05-09T00:30:21;101593.06;;;10.00;47.50
49072;BME280;52656;52.610;10.236;2023-05-09T00:32:47;101601.75;;;10.05;47.50
49072;BME280;52656;52.610;10.236;2023-05-09T00:35:12;101600.03;;;10.03;47.44
49072;BME280;52656;52.610;10.236;2023-05-09T00:37:37;101594.06;;;9.95;47.62
49072;BME280;52656;52.610;10.236;2023-05-09T00:40:04;101593.19;;;9.94;47.48
49072;BME280;52656;52.610;10.236;2023-05-09T00:42:30;101588.97;;;9.85;47.87
49072;BME280;52656;52.610;10.236;2023-05-09T00:44:56;101585.63;;;9.77;48.17
49072;BME280;52656;52.610;10.236;2023-05-09T00:47:22;101580.34;;;9.76;48.37
49072;BME280;52656;52.610;10.236;2023-05-09T00:49:48;101578.88;;;9.62;49.13
49072;BME280;52656;52.610;10.236;2023-05-09T00:52:13;101576.97;;;9.69;49.28
49072;BME280;52656;52.610;10.236;2023-05-09T00:54:39;101574.41;;;9.66;49.03
49072;BME280;52656;52.610;10.236;2023-05-09T00:57:04;101573.44;;;9.70;49.02
49072;BME280;52656;52.610;10.236;2023-05-09T00:59:30;101569.22;;;9.61;49.44
49072;BME280;52656;52.610;10.236;2023-05-09T01:01:55;101563.91;;;9.61;49.59
49072;BME280;52656;52.610;10.236;2023-05-09T01:04:20;101568.59;;;9.50;50.14
49072;BME280;52656;52.610;10.236;2023-05-09T01:18:07;101554.91;;;9.30;50.95
49072;BME280;52656;52.610;10.236;2023-05-09T01:20:35;101547.28;;;9.17;51.42
49072;BME280;52656;52.610;10.236;2023-05-09T01:29:33;101539.69;;;9.01;51.95
49072;BME280;52656;52.610;10.236;2023-05-09T01:32:13;101539.09;;;8.85;52.47
49072;BME280;52656;52.610;10.236;2023-05-09T01:34:42;101533.81;;;8.86;52.70
49072;BME280;52656;52.610;10.236;2023-05-09T01:37:08;101534.63;;;8.88;52.35
49072;BME280;52656;52.610;10.236;2023-05-09T01:39:37;101529.50;;;8.81;52.67
49072;BME280;52656;52.610;10.236;2023-05-09T01:42:06;101527.69;;;8.84;52.58
49072;BME280;52656;52.610;10.236;2023-05-09T01:44:38;101530.50;;;8.77;52.95
49072;BME280;52656;52.610;10.236;2023-05-09T01:47:04;101530.53;;;8.74;53.14
49072;BME280;52656;52.610;10.236;2023-05-09T01:49:32;101529.59;;;8.78;52.98
49072;BME280;52656;52.610;10.236;2023-05-09T01:52:03;101536.75;;;8.71;53.24
49072;BME280;52656;52.610;10.236;2023-05-09T01:54:30;101530.44;;;8.78;53.31
49072;BME280;52656;52.610;10.236;2023-05-09T01:56:55;101528.00;;;8.69;53.08
49072;BME280;52656;52.610;10.236;2023-05-09T01:59:22;101522.72;;;8.69;53.49
49072;BME280;52656;52.610;10.236;2023-05-09T02:01:48;101523.63;;;8.66;53.55
49072;BME280;52656;52.610;10.236;2023-05-09T02:04:14;101527.16;;;8.65;53.90
49072;BME280;52656;52.610;10.236;2023-05-09T02:06:41;101519.25;;;8.65;53.71
49072;BME280;52656;52.610;10.236;2023-05-09T02:09:09;101521.31;;;8.50;54.83
49072;BME280;52656;52.610;10.236;2023-05-09T02:11:35;101523.19;;;8.45;55.06
49072;BME280;52656;52.610;10.236;2023-05-09T02:14:00;101517.00;;;8.46;54.67
49072;BME280;52656;52.610;10.236;2023-05-09T02:16:26;101515.25;;;8.45;54.31
49072;BME280;52656;52.610;10.236;2023-05-09T02:18:52;101517.94;;;8.41;55.07
49072;BME280;52656;52.610;10.236;2023-05-09T02:21:17;101515.31;;;8.41;54.86
49072;BME280;52656;52.610;10.236;2023-05-09T02:23:42;101512.69;;;8.40;55.05
49072;BME280;52656;52.610;10.236;2023-05-09T02:26:08;101508.56;;;8.24;56.20
49072;BME280;52656;52.610;10.236;2023-05-09T02:28:33;101512.97;;;8.25;56.30
49072;BME280;52656;52.610;10.236;2023-05-09T02:31:00;101513.72;;;8.33;56.05
49072;BME280;52656;52.610;10.236;2023-05-09T02:33:29;101504.97;;;8.29;56.03
49072;BME280;52656;52.610;10.236;2023-05-09T02:35:55;101510.38;;;8.20;56.97
49072;BME280;52656;52.610;10.236;2023-05-09T02:38:21;101498.13;;;8.18;57.79
49072;BME280;52656;52.610;10.236;2023-05-09T02:40:46;101502.75;;;8.05;58.48
49072;BME280;52656;52.610;10.236;2023-05-09T02:43:12;101506.13;;;8.11;57.73
49072;BME280;52656;52.610;10.236;2023-05-09T02:45:39;101509.72;;;8.07;57.86
49072;BME280;52656;52.610;10.236;2023-05-09T02:48:05;101508.84;;;8.07;57.47
49072;BME280;52656;52.610;10.236;2023-05-09T02:50:30;101503.75;;;7.96;58.93
49072;BME280;52656;52.610;10.236;2023-05-09T02:52:55;101501.03;;;8.01;58.11
49072;BME280;52656;52.610;10.236;2023-05-09T02:55:21;101509.88;;;7.98;58.61
49072;BME280;52656;52.610;10.236;2023-05-09T02:57:46;101495.72;;;8.04;58.00
49072;BME280;52656;52.610;10.236;2023-05-09T03:00:12;101503.84;;;7.90;59.22
49072;BME280;52656;52.610;10.236;2023-05-09T03:02:37;101500.56;;;7.77;60.01
49072;BME280;52656;52.610;10.236;2023-05-09T03:05:03;101500.53;;;7.79;60.21
49072;BME280;52656;52.610;10.236;2023-05-09T03:07:29;101505.03;;;7.72;60.78
49072;BME280;52656;52.610;10.236;2023-05-09T03:09:54;101495.28;;;7.76;60.98
49072;BME280;52656;52.610;10.236;2023-05-09T03:12:20;101497.84;;;7.80;59.95
49072;BME280;52656;52.610;10.236;2023-05-09T03:14:45;101495.38;;;7.73;61.79
49072;BME280;52656;52.610;10.236;2023-05-09T03:17:11;101490.09;;;7.71;61.28
49072;BME280;52656;52.610;10.236;2023-05-09T03:19:36;101491.03;;;7.67;61.50
49072;BME280;52656;52.610;10.236;2023-05-09T03:22:01;101477.91;;;7.62;62.21
49072;BME280;52656;52.610;10.236;2023-05-09T03:24:27;101482.53;;;7.48;62.94
49072;BME280;52656;52.610;10.236;2023-05-09T03:26:52;101478.84;;;7.60;62.77
49072;BME280;52656;52.610;10.236;2023-05-09T03:29:18;101478.75;;;7.66;62.21
49072;BME280;52656;52.610;10.236;2023-05-09T03:31:43;101474.44;;;7.60;62.92
49072;BME280;52656;52.610;10.236;2023-05-09T03:34:08;101473.63;;;7.58;63.37
49072;BME280;52656;52.610;10.236;2023-05-09T03:36:39;101471.03;;;7.55;63.19
49072;BME280;52656;52.610;10.236;2023-05-09T03:39:05;101462.84;;;7.71;62.87
49072;BME280;52656;52.610;10.236;2023-05-09T03:41:30;101469.00;;;7.73;62.99
49072;BME280;52656;52.610;10.236;2023-05-09T03:43:55;101469.78;;;7.78;62.45
49072;BME280;52656;52.610;10.236;2023-05-09T03:46:21;101476.19;;;7.63;63.43
49072;BME280;52656;52.610;10.236;2023-05-09T03:48:46;101467.16;;;7.78;62.86
49072;BME280;52656;52.610;10.236;2023-05-09T03:51:11;101478.75;;;7.68;63.58
49072;BME280;52656;52.610;10.236;2023-05-09T03:53:36;101475.81;;;7.86;63.22
49072;BME280;52656;52.610;10.236;2023-05-09T03:56:02;101476.75;;;7.82;63.72
49072;BME280;52656;52.610;10.236;2023-05-09T03:58:27;101472.16;;;7.93;63.06
49072;BME280;52656;52.610;10.236;2023-05-09T04:00:52;101471.81;;;8.11;62.75
49072;BME280;52656;52.610;10.236;2023-05-09T04:03:18;101465.41;;;8.26;61.91
49072;BME280;52656;52.610;10.236;2023-05-09T04:05:43;101470.69;;;8.28;62.36
49072;BME280;52656;52.610;10.236;2023-05-09T04:08:08;101459.94;;;8.80;60.86
49072;BME280;52656;52.610;10.236;2023-05-09T04:10:34;101455.34;;;9.66;57.36
49072;BME280;52656;52.610;10.236;2023-05-09T04:12:59;101456.22;;;10.04;55.55
49072;BME280;52656;52.610;10.236;2023-05-09T04:15:25;101452.41;;;10.47;54.51
49072;BME280;52656;52.610;10.236;2023-05-09T04:17:50;101459.66;;;10.40;53.97
49072;BME280;52656;52.610;10.236;2023-05-09T04:20:16;101456.50;;;10.58;54.06
49072;BME280;52656;52.610;10.236;2023-05-09T04:22:41;101447.69;;;10.56;53.93
49072;BME280;52656;52.610;10.236;2023-05-09T04:25:06;101444.13;;;10.26;54.89
49072;BME280;52656;52.610;10.236;2023-05-09T04:27:36;101447.66;;;10.58;54.29
49072;BME280;52656;52.610;10.236;2023-05-09T04:30:01;101448.34;;;10.94;52.71
49072;BME280;52656;52.610;10.236;2023-05-09T04:32:27;101429.72;;;11.80;50.52
49072;BME280;52656;52.610;10.236;2023-05-09T04:34:53;101424.34;;;12.33;49.26
49072;BME280;52656;52.610;10.236;2023-05-09T04:37:18;101426.25;;;13.23;47.43
49072;BME280;52656;52.610;10.236;2023-05-09T04:39:44;101425.88;;;13.54;46.72
49072;BME280;52656;52.610;10.236;2023-05-09T04:42:09;101428.03;;;14.09;45.03
49072;BME280;52656;52.610;10.236;2023-05-09T04:44:34;101426.84;;;14.55;44.24
49072;BME280;52656;52.610;10.236;2023-05-09T04:47:00;101426.88;;;15.12;43.31
49072;BME280;52656;52.610;10.236;2023-05-09T04:49:25;101422.41;;;15.31;42.96
49072;BME280;52656;52.610;10.236;2023-05-09T04:51:50;101422.34;;;16.54;40.46
49072;BME280;52656;52.610;10.236;2023-05-09T04:54:16;101423.81;;;17.09;38.88
49072;BME280;52656;52.610;10.236;2023-05-09T04:56:41;101424.91;;;17.20;38.92
49072;BME280;52656;52.610;10.236;2023-05-09T04:59:07;101419.22;;;16.79;39.61
49072;BME280;52656;52.610;10.236;2023-05-09T05:01:32;101426.28;;;14.28;43.48
49072;BME280;52656;52.610;10.236;2023-05-09T05:03:57;101423.97;;;14.00;44.83
49072;BME280;52656;52.610;10.236;2023-05-09T05:06:22;101418.50;;;14.63;44.16
49072;BME280;52656;52.610;10.236;2023-05-09T05:08:48;101415.66;;;15.95;41.22
49072;BME280;52656;52.610;10.236;2023-05-09T05:11:13;101415.44;;;15.46;42.32
49072;BME280;52656;52.610;10.236;2023-05-09T05:13:38;101403.88;;;16.49;39.53
49072;BME280;52656;52.610;10.236;2023-05-09T05:16:04;101395.25;;;16.44;40.18
49072;BME280;52656;52.610;10.236;2023-05-09T05:18:29;101392.50;;;18.31;37.56
49072;BME280;52656;52.610;10.236;2023-05-09T05:20:55;101393.84;;;18.81;36.11
49072;BME280;52656;52.610;10.236;2023-05-09T05:23:20;101394.28;;;19.56;34.63
49072;BME280;52656;52.610;10.236;2023-05-09T05:25:45;101383.75;;;17.99;37.43
49072;BME280;52656;52.610;10.236;2023-05-09T05:28:10;101385.56;;;16.09;41.04
49072;BME280;52656;52.610;10.236;2023-05-09T05:30:36;101376.50;;;16.78;39.92
49072;BME280;52656;52.610;10.236;2023-05-09T05:33:01;101389.72;;;16.96;39.14
49072;BME280;52656;52.610;10.236;2023-05-09T05:35:26;101391.72;;;15.40;42.03
49072;BME280;52656;52.610;10.236;2023-05-09T05:37:52;101381.19;;;18.40;37.23
49072;BME280;52656;52.610;10.236;2023-05-09T05:40:18;101372.81;;;18.88;35.81
49072;BME280;52656;52.610;10.236;2023-05-09T05:42:43;101369.91;;;19.05;35.52
49072;BME280;52656;52.610;10.236;2023-05-09T05:45:10;101370.09;;;20.09;34.06
49072;BME280;52656;52.610;10.236;2023-05-09T05:47:35;101368.56;;;19.12;35.90
49072;BME280;52656;52.610;10.236;2023-05-09T05:50:02;101369.78;;;21.01;32.66
49072;BME280;52656;52.610;10.236;2023-05-09T05:52:28;101362.34;;;21.64;31.65
49072;BME280;52656;52.610;10.236;2023-05-09T05:54:53;101369.25;;;22.03;31.06
49072;BME280;52656;52.610;10.236;2023-05-09T05:57:19;101355.53;;;22.51;30.00
49072;BME280;52656;52.610;10.236;2023-05-09T05:59:48;101362.13;;;21.08;32.29
49072;BME280;52656;52.610;10.236;2023-05-09T06:02:14;101356.63;;;22.82;30.41
49072;BME280;52656;52.610;10.236;2023-05-09T06:04:40;101356.38;;;22.74;30.35
49072;BME280;52656;52.610;10.236;2023-05-09T06:07:05;101346.19;;;24.37;28.95
49072;BME280;52656;52.610;10.236;2023-05-09T06:09:31;101351.09;;;24.52;28.41
49072;BME280;52656;52.610;10.236;2023-05-09T06:11:56;101357.81;;;24.27;27.98
49072;BME280;52656;52.610;10.236;2023-05-09T06:14:21;101347.91;;;25.57;27.26
49072;BME280;52656;52.610;10.236;2023-05-09T06:16:47;101369.09;;;26.10;25.80
49072;BME280;52656;52.610;10.236;2023-05-09T06:19:12;101355.84;;;25.20;27.05
49072;BME280;52656;52.610;10.236;2023-05-09T06:21:37;101343.19;;;25.30;27.41
49072;BME280;52656;52.610;10.236;2023-05-09T06:24:03;101339.69;;;24.99;27.18
49072;BME280;52656;52.610;10.236;2023-05-09T06:26:28;101342.31;;;25.29;27.13
49072;BME280;52656;52.610;10.236;2023-05-09T06:28:54;101329.44;;;25.90;26.33
49072;BME280;52656;52.610;10.236;2023-05-09T06:31:20;101335.47;;;25.45;25.79
49072;BME280;52656;52.610;10.236;2023-05-09T06:33:45;101326.47;;;25.73;26.08
49072;BME280;52656;52.610;10.236;2023-05-09T06:36:10;101327.91;;;26.62;25.42
49072;BME280;52656;52.610;10.236;2023-05-09T06:38:36;101329.91;;;25.37;26.57
49072;BME280;52656;52.610;10.236;2023-05-09T06:41:01;101332.31;;;26.63;25.59
49072;BME280;52656;52.610;10.236;2023-05-09T06:43:27;101328.16;;;27.14;24.75
49072;BME280;52656;52.610;10.236;2023-05-09T06:45:52;101333.75;;;25.63;26.61
49072;BME280;52656;52.610;10.236;2023-05-09T06:48:17;101334.66;;;23.51;29.05
49072;BME280;52656;52.610;10.236;2023-05-09T06:50:42;101321.09;;;21.74;31.89
49072;BME280;52656;52.610;10.236;2023-05-09T06:53:08;101329.16;;;20.67;33.47
49072;BME280;52656;52.610;10.236;2023-05-09T06:55:33;101325.53;;;20.79;33.41
49072;BME280;52656;52.610;10.236;2023-05-09T06:57:59;101331.25;;;21.36;32.40
49072;BME280;52656;52.610;10.236;2023-05-09T07:00:24;101317.22;;;23.23;29.97
49072;BME280;52656;52.610;10.236;2023-05-09T07:02:49;101301.88;;;26.59;25.72
49072;BME280;52656;52.610;10.236;2023-05-09T07:05:14;101303.97;;;27.11;25.24
49072;BME280;52656;52.610;10.236;2023-05-09T07:07:40;101297.59;;;27.38;24.70
49072;BME280;52656;52.610;10.236;2023-05-09T07:10:06;101289.63;;;26.18;26.74
49072;BME280;52656;52.610;10.236;2023-05-09T07:12:32;101291.88;;;24.98;27.73
49072;BME280;52656;52.610;10.236;2023-05-09T07:14:57;101294.63;;;23.24;30.05
49072;BME280;52656;52.610;10.236;2023-05-09T07:17:22;101290.13;;;23.97;29.06
49072;BME280;52656;52.610;10.236;2023-05-09T07:19:48;101280.78;;;26.98;25.31
49072;BME280;52656;52.610;10.236;2023-05-09T07:22:14;101276.28;;;28.79;23.50
49072;BME280;52656;52.610;10.236;2023-05-09T07:24:39;101269.00;;;28.46;23.17
49072;BME280;52656;52.610;10.236;2023-05-09T07:27:04;101272.50;;;27.70;23.70
49072;BME280;52656;52.610;10.236;2023-05-09T07:29:30;101261.88;;;29.36;23.00
49072;BME280;52656;52.610;10.236;2023-05-09T07:31:55;101261.16;;;29.10;22.63
49072;BME280;52656;52.610;10.236;2023-05-09T07:34:20;101251.44;;;28.91;22.68
49072;BME280;52656;52.610;10.236;2023-05-09T07:36:47;101248.53;;;29.00;23.05
49072;BME280;52656;52.610;10.236;2023-05-09T07:39:12;101248.84;;;28.22;23.14
49072;BME280;52656;52.610;10.236;2023-05-09T07:41:38;101245.31;;;29.13;22.64
49072;BME280;52656;52.610;10.236;2023-05-09T07:44:03;101241.41;;;29.40;22.28
49072;BME280;52656;52.610;10.236;2023-05-09T07:46:28;101234.03;;;30.21;21.51
49072;BME280;52656;52.610;10.236;2023-05-09T07:48:54;101233.06;;;30.05;21.61
49072;BME280;52656;52.610;10.236;2023-05-09T07:51:19;101223.47;;;31.26;20.85
49072;BME280;52656;52.610;10.236;2023-05-09T07:53:44;101216.06;;;31.79;20.20
49072;BME280;52656;52.610;10.236;2023-05-09T07:56:10;101216.81;;;33.11;19.58
49072;BME280;52656;52.610;10.236;2023-05-09T07:58:35;101206.56;;;31.37;20.22
49072;BME280;52656;52.610;10.236;2023-05-09T08:01:00;101202.31;;;31.57;20.19
49072;BME280;52656;52.610;10.236;2023-05-09T08:03:26;101209.34;;;30.68;20.23
49072;BME280;52656;52.610;10.236;2023-05-09T08:05:54;101198.97;;;31.47;20.42
49072;BME280;52656;52.610;10.236;2023-05-09T08:08:21;101189.75;;;32.65;19.61
49072;BME280;52656;52.610;10.236;2023-05-09T08:10:46;101197.53;;;32.83;19.24
49072;BME280;52656;52.610;10.236;2023-05-09T08:13:11;101195.78;;;30.52;21.24
49072;BME280;52656;52.610;10.236;2023-05-09T08:15:37;101184.22;;;31.93;19.45
49072;BME280;52656;52.610;10.236;2023-05-09T08:18:02;101187.31;;;31.98;19.51
49072;BME280;52656;52.610;10.236;2023-05-09T08:20:27;101190.56;;;30.65;20.50
49072;BME280;52656;52.610;10.236;2023-05-09T08:22:55;101168.56;;;32.01;19.74
49072;BME280;52656;52.610;10.236;2023-05-09T08:25:20;101166.66;;;32.02;20.21
49072;BME280;52656;52.610;10.236;2023-05-09T08:27:47;101170.66;;;30.25;20.96
49072;BME280;52656;52.610;10.236;2023-05-09T08:30:13;101171.00;;;29.03;22.15
49072;BME280;52656;52.610;10.236;2023-05-09T08:32:38;101166.81;;;31.12;20.38
49072;BME280;52656;52.610;10.236;2023-05-09T08:35:04;101159.03;;;31.82;20.02
49072;BME280;52656;52.610;10.236;2023-05-09T08:37:30;101157.41;;;30.68;20.58
49072;BME280;52656;52.610;10.236;2023-05-09T08:39:55;101153.41;;;31.17;19.84
49072;BME280;52656;52.610;10.236;2023-05-09T08:42:21;101151.75;;;31.60;19.74
49072;BME280;52656;52.610;10.236;2023-05-09T08:44:47;101138.31;;;31.95;19.27
49072;BME280;52656;52.610;10.236;2023-05-09T08:47:13;101151.19;;;30.51;20.19
49072;BME280;52656;52.610;10.236;2023-05-09T08:49:39;101135.16;;;30.71;20.03
49072;BME280;52656;52.610;10.236;2023-05-09T08:52:05;101143.69;;;31.14;20.05
49072;BME280;52656;52.610;10.236;2023-05-09T08:54:31;101141.50;;;29.70;20.44
49072;BME280;52656;52.610;10.236;2023-05-09T08:56:59;101143.50;;;30.24;20.34
49072;BME280;52656;52.610;10.236;2023-05-09T08:59:25;101140.72;;;29.62;20.85
49072;BME280;52656;52.610;10.236;2023-05-09T09:01:52;101137.72;;;29.88;20.89
49072;BME280;52656;52.610;10.236;2023-05-09T09:04:17;101138.47;;;30.44;19.99
49072;BME280;52656;52.610;10.236;2023-05-09T09:06:43;101145.09;;;28.91;20.47
49072;BME280;52656;52.610;10.236;2023-05-09T09:09:10;101121.06;;;29.02;20.84
49072;BME280;52656;52.610;10.236;2023-05-09T09:11:36;101133.50;;;28.80;21.37
49072;BME280;52656;52.610;10.236;2023-05-09T09:14:10;101119.66;;;29.31;20.81
49072;BME280;52656;52.610;10.236;2023-05-09T09:16:37;101118.59;;;29.88;20.83
49072;BME280;52656;52.610;10.236;2023-05-09T09:19:07;101123.66;;;29.51;21.49
49072;BME280;52656;52.610;10.236;2023-05-09T09:21:35;101129.84;;;29.45;21.11
49072;BME280;52656;52.610;10.236;2023-05-09T09:24:02;101123.69;;;29.99;21.06
49072;BME280;52656;52.610;10.236;2023-05-09T09:26:27;101150.00;;;28.71;21.55
49072;BME280;52656;52.610;10.236;2023-05-09T09:28:56;101115.59;;;29.02;21.66
49072;BME280;52656;52.610;10.236;2023-05-09T09:31:23;101115.16;;;28.16;22.31
49072;BME280;52656;52.610;10.236;2023-05-09T09:33:49;101109.56;;;28.33;22.02
49072;BME280;52656;52.610;10.236;2023-05-09T09:36:15;101092.88;;;27.36;22.91
49072;BME280;52656;52.610;10.236;2023-05-09T09:38:41;101114.41;;;27.89;22.37
49072;BME280;52656;52.610;10.236;2023-05-09T09:41:08;101077.28;;;27.46;22.47
49072;BME280;52656;52.610;10.236;2023-05-09T09:43:35;101087.47;;;28.37;22.47
49072;BME280;52656;52.610;10.236;2023-05-09T09:46:02;101097.63;;;27.33;22.85
49072;BME280;52656;52.610;10.236;2023-05-09T09:48:32;101078.72;;;28.08;22.64
49072;BME280;52656;52.610;10.236;2023-05-09T09:51:10;101077.25;;;28.30;22.50
49072;BME280;52656;52.610;10.236;2023-05-09T09:53:40;101071.00;;;27.96;22.57
49072;BME280;52656;52.610;10.236;2023-05-09T09:56:07;101075.19;;;28.24;22.33
49072;BME280;52656;52.610;10.236;2023-05-09T09:58:32;101071.28;;;28.92;21.95
49072;BME280;52656;52.610;10.236;2023-05-09T10:01:04;101069.44;;;27.43;23.11
49072;BME280;52656;52.610;10.236;2023-05-09T10:03:38;101061.75;;;28.31;22.23
49072;BME280;52656;52.610;10.236;2023-05-09T10:06:04;101067.00;;;26.79;23.67
49072;BME280;52656;52.610;10.236;2023-05-09T10:08:29;101059.47;;;26.73;24.05
49072;BME280;52656;52.610;10.236;2023-05-09T10:10:55;101057.47;;;26.75;23.46
49072;BME280;52656;52.610;10.236;2023-05-09T10:13:22;101057.88;;;26.89;23.75
49072;BME280;52656;52.610;10.236;2023-05-09T10:15:48;101055.81;;;26.21;24.65
49072;BME280;52656;52.610;10.236;2023-05-09T10:18:16;101050.13;;;26.50;23.98
49072;BME280;52656;52.610;10.236;2023-05-09T10:20:43;101044.66;;;25.51;25.27
49072;BME280;52656;52.610;10.236;2023-05-09T10:23:11;101047.47;;;25.31;25.56
49072;BME280;52656;52.610;10.236;2023-05-09T10:25:46;101064.69;;;25.68;25.13
49072;BME280;52656;52.610;10.236;2023-05-09T10:28:14;101038.50;;;26.40;25.01
49072;BME280;52656;52.610;10.236;2023-05-09T10:30:49;101022.13;;;26.49;25.22
49072;BME280;52656;52.610;10.236;2023-05-09T10:33:25;101030.34;;;26.04;25.85
49072;BME280;52656;52.610;10.236;2023-05-09T10:35:53;101017.41;;;25.70;26.00
49072;BME280;52656;52.610;10.236;2023-05-09T10:38:20;101034.16;;;24.91;26.97
49072;BME280;52656;52.610;10.236;2023-05-09T10:40:46;101028.53;;;25.22;27.01
49072;BME280;52656;52.610;10.236;2023-05-09T10:43:12;101012.16;;;25.04;26.83
49072;BME280;52656;52.610;10.236;2023-05-09T10:45:39;101049.09;;;25.15;27.04
49072;BME280;52656;52.610;10.236;2023-05-09T10:48:05;101010.47;;;25.40;26.68
49072;BME280;52656;52.610;10.236;2023-05-09T10:50:33;101000.13;;;25.26;27.10
49072;BME280;52656;52.610;10.236;2023-05-09T11:00:49;100984.06;;;22.90;29.94
49072;BME280;52656;52.610;10.236;2023-05-09T11:03:15;100968.34;;;22.74;31.19
49072;BME280;52656;52.610;10.236;2023-05-09T11:05:44;100976.19;;;22.36;30.87
49072;BME280;52656;52.610;10.236;2023-05-09T11:08:35;100960.13;;;22.13;31.92
49072;BME280;52656;52.610;10.236;2023-05-09T11:11:06;100975.63;;;22.21;31.73
49072;BME280;52656;52.610;10.236;2023-05-09T11:13:35;100961.41;;;21.98;32.00
49072;BME280;52656;52.610;10.236;2023-05-09T11:18:28;100962.00;;;21.81;32.50
49072;BME280;52656;52.610;10.236;2023-05-09T11:20:54;100951.97;;;21.71;32.45
49072;BME280;52656;52.610;10.236;2023-05-09T11:23:28;100940.31;;;21.05;33.00
49072;BME280;52656;52.610;10.236;2023-05-09T11:26:03;100951.00;;;21.50;32.99
49072;BME280;52656;52.610;10.236;2023-05-09T11:28:31;100930.06;;;21.53;32.79
49072;BME280;52656;52.610;10.236;2023-05-09T11:33:36;100925.16;;;21.91;32.96
49072;BME280;52656;52.610;10.236;2023-05-09T11:36:21;100919.16;;;21.87;33.58
49072;BME280;52656;52.610;10.236;2023-05-09T11:41:29;100921.53;;;22.01;31.83
49072;BME280;52656;52.610;10.236;2023-05-09T11:43:55;100916.63;;;21.74;32.21
49072;BME280;52656;52.610;10.236;2023-05-09T11:46:21;100916.88;;;22.03;32.04
49072;BME280;52656;52.610;10.236;2023-05-09T11:48:47;100904.44;;;21.48;32.67
49072;BME280;52656;52.610;10.236;2023-05-09T11:51:16;100892.72;;;21.81;32.54
49072;BME280;52656;52.610;10.236;2023-05-09T11:53:48;100902.59;;;21.60;33.13
49072;BME280;52656;52.610;10.236;2023-05-09T11:56:14;100894.13;;;21.75;32.71
49072;BME280;52656;52.610;10.236;2023-05-09T11:58:40;100901.13;;;21.67;32.38
49072;BME280;52656;52.610;10.236;2023-05-09T12:01:06;100897.38;;;21.79;32.62
49072;BME280;52656;52.610;10.236;2023-05-09T12:03:32;100897.94;;;21.94;32.53
49072;BME280;52656;52.610;10.236;2023-05-09T12:05:57;100885.03;;;21.97;31.89
49072;BME280;52656;52.610;10.236;2023-05-09T12:08:23;100888.84;;;22.16;31.83
49072;BME280;52656;52.610;10.236;2023-05-09T12:10:49;100897.44;;;21.89;32.06
49072;BME280;52656;52.610;10.236;2023-05-09T12:13:15;100882.66;;;22.04;31.75
49072;BME280;52656;52.610;10.236;2023-05-09T12:15:40;100875.81;;;22.21;31.95
49072;BME280;52656;52.610;10.236;2023-05-09T12:18:07;100872.31;;;22.51;31.92
49072;BME280;52656;52.610;10.236;2023-05-09T12:20:47;100865.81;;;22.12;32.24
49072;BME280;52656;52.610;10.236;2023-05-09T12:23:14;100863.84;;;22.14;32.43
49072;BME280;52656;52.610;10.236;2023-05-09T12:26:00;100856.53;;;22.25;32.49
49072;BME280;52656;52.610;10.236;2023-05-09T12:28:25;100861.34;;;22.22;32.38
49072;BME280;52656;52.610;10.236;2023-05-09T12:30:52;100857.97;;;22.29;32.16
49072;BME280;52656;52.610;10.236;2023-05-09T12:33:18;100860.91;;;22.47;31.53
49072;BME280;52656;52.610;10.236;2023-05-09T12:35:47;100852.13;;;22.45;31.50
49072;BME280;52656;52.610;10.236;2023-05-09T12:38:14;100868.16;;;22.47;31.95
49072;BME280;52656;52.610;10.236;2023-05-09T12:40:47;100853.28;;;22.32;32.09
49072;BME280;52656;52.610;10.236;2023-05-09T12:43:12;100849.34;;;22.15;31.51
49072;BME280;52656;52.610;10.236;2023-05-09T12:45:38;100849.31;;;22.57;31.64
49072;BME280;52656;52.610;10.236;2023-05-09T12:48:03;100849.19;;;22.58;31.90
49072;BME280;52656;52.610;10.236;2023-05-09T12:50:31;100850.25;;;22.46;31.82
49072;BME280;52656;52.610;10.236;2023-05-09T12:53:00;100835.06;;;22.24;32.19
49072;BME280;52656;52.610;10.236;2023-05-09T12:55:26;100840.34;;;22.25;32.14
49072;BME280;52656;52.610;10.236;2023-05-09T12:58:01;100841.19;;;22.26;31.97
49072;BME280;52656;52.610;10.236;2023-05-09T13:00:27;100834.97;;;22.25;32.32
49072;BME280;52656;52.610;10.236;2023-05-09T13:02:53;100831.31;;;22.36;31.32
49072;BME280;52656;52.610;10.236;2023-05-09T13:05:20;100834.00;;;22.36;32.15
49072;BME280;52656;52.610;10.236;2023-05-09T13:07:51;100833.78;;;22.39;31.91
49072;BME280;52656;52.610;10.236;2023-05-09T13:12:45;100819.72;;;22.24;32.12
49072;BME280;52656;52.610;10.236;2023-05-09T13:15:14;100805.44;;;22.03;32.79